Simoes, Brazil
Current Conditions -  °F | °C
As of 7:00 PM on Wednesday 22 Oct 2014 (Local Time) from SBJU Reporting Station
Few Clouds Few Clouds  
Wind Chill: 91°   Ceiling: Unl
Heat Index: 92°   Visibility: 6mi
Dew Point: 63°   Wind: 3mph
Humidity: 38%   Direction: 80°E
Pressure: 29.97"   Gusts: NA
Location:  7.6°S, 40.82°W
Report Text: SBJU 222200Z 08003KT 9999 FEW022 33/17 Q1015
Loading
Personal Weather Stations






























Interactive Weather Map
Tropical Storm Tracking
New forecast layout! Learn more

10-Day Weather Forecast

Advertisements
Track Severe Weather on mobile